Time;durP1;ratioP1;P1;durP2;ratioP2;P2;SDS_P1;SDS_P2;PMS_P1;PMS_P2;Temp;Humidity;BMP_temperature;BMP_pressure;BME280_temperature;BME280_humidity;BME280_pressure;Samples;Min_cycle;Max_cycle;Signal;HPM_P1;HPM_P2
2022/07/02 00:00:17;;;;;;;2.40;1.27;;;;;;;19.82;52.08;94612.50;4965062;28;20097;-90
2022/07/02 00:02:43;;;;;;;2.22;1.00;;;;;;;19.72;50.88;94610.97;4998060;28;20069;-91
2022/07/02 00:05:12;;;;;;;2.70;1.00;;;;;;;19.76;48.71;94613.78;4964748;28;20054;-91
2022/07/02 00:07:38;;;;;;;2.58;1.25;;;;;;;19.77;49.11;94607.34;4964647;28;20188;-91
2022/07/02 00:10:05;;;;;;;3.40;1.45;;;;;;;19.78;49.39;94608.91;4981380;28;20030;-92
2022/07/02 00:12:30;;;;;;;6.15;1.33;;;;;;;20.03;47.63;94609.94;4998541;28;20052;-91
2022/07/02 00:14:58;;;;;;;1.83;1.00;;;;;;;20.46;46.42;94616.06;4979789;28;20041;-93
2022/07/02 00:17:24;;;;;;;1.75;0.95;;;;;;;20.01;49.08;94611.34;4964832;28;20041;-91
2022/07/02 00:19:51;;;;;;;3.35;1.30;;;;;;;19.98;49.38;94619.97;4965183;28;20030;-92
2022/07/02 00:22:17;;;;;;;4.75;1.10;;;;;;;19.81;49.55;94623.44;4964734;28;20057;-90
2022/07/02 00:24:43;;;;;;;3.53;1.10;;;;;;;19.78;49.98;94630.97;4964105;28;20033;-91
2022/07/02 00:27:14;;;;;;;3.95;1.00;;;;;;;19.64;50.10;94625.09;4964767;28;20332;-92
2022/07/02 00:30:01;;;;;;;3.35;1.25;;;;;;;19.67;49.84;94624.44;4964500;28;20030;-91
2022/07/02 00:32:29;;;;;;;3.92;0.98;;;;;;;19.67;49.11;94624.44;4964673;28;20494;-91
2022/07/02 00:34:56;;;;;;;2.42;1.20;;;;;;;19.70;49.04;94628.34;4980121;28;20034;-92
2022/07/02 00:37:23;;;;;;;3.47;1.17;;;;;;;19.75;48.54;94636.13;4964708;28;20325;-92
2022/07/02 00:39:48;;;;;;;4.35;1.60;;;;;;;19.67;48.70;94635.06;4964532;28;20027;-91
2022/07/02 00:42:14;;;;;;;4.43;1.20;;;;;;;19.62;49.43;94633.38;4979985;28;20441;-90
2022/07/02 00:44:41;;;;;;;3.15;1.30;;;;;;;19.50;48.92;94635.91;4979854;28;20054;-91
2022/07/02 00:47:09;;;;;;;4.40;1.02;;;;;;;19.48;48.76;94635.44;4980344;28;20085;-91
2022/07/02 00:49:36;;;;;;;4.22;1.23;;;;;;;19.47;49.29;94637.34;4980664;28;20136;-90
2022/07/02 00:52:03;;;;;;;2.63;1.13;;;;;;;19.38;50.24;94636.56;4980562;28;20029;-92
2022/07/02 00:54:29;;;;;;;3.72;0.90;;;;;;;19.36;49.91;94639.53;4979848;28;20038;-90
2022/07/02 00:56:55;;;;;;;2.95;1.17;;;;;;;19.50;48.96;94635.91;4980441;28;20458;-92
2022/07/02 00:59:21;;;;;;;4.05;0.88;;;;;;;19.60;48.56;94634.81;4964189;28;20034;-91
2022/07/02 01:01:47;;;;;;;3.38;1.13;;;;;;;19.65;48.15;94639.94;4980166;28;20034;-91
2022/07/02 01:04:14;;;;;;;3.20;1.10;;;;;;;19.73;48.43;94638.34;4979534;28;20420;-91
2022/07/02 01:06:41;;;;;;;9.43;1.48;;;;;;;19.56;50.03;94639.16;4997694;28;20049;-92
2022/07/02 01:11:56;;;;;;;4.28;1.40;;;;;;;19.35;49.73;94645.19;4983672;28;20085;-92
2022/07/02 01:14:31;;;;;;;4.47;1.38;;;;;;;19.49;48.74;94637.00;4989923;28;20030;-92
2022/07/02 01:16:56;;;;;;;2.55;1.30;;;;;;;19.58;48.22;94636.97;4978613;28;20038;-91
2022/07/02 01:19:23;;;;;;;2.45;1.05;;;;;;;19.49;49.10;94637.00;4988970;28;20426;-91
2022/07/02 01:22:17;;;;;;;4.57;1.20;;;;;;;19.40;49.22;94638.91;4990514;28;20026;-92
2022/07/02 01:24:45;;;;;;;4.00;0.98;;;;;;;19.64;47.94;94641.78;4998755;28;20029;-92
2022/07/02 01:27:10;;;;;;;3.60;1.25;;;;;;;19.46;48.93;94641.09;4968579;28;20037;-92
2022/07/02 01:29:39;;;;;;;2.08;1.10;;;;;;;19.31;49.50;94636.28;5000667;28;20022;-91
2022/07/02 01:32:06;;;;;;;6.00;1.50;;;;;;;19.36;49.40;94636.88;5007196;28;20389;-91
2022/07/02 01:34:42;;;;;;;2.50;1.27;;;;;;;19.71;48.06;94643.19;4994633;28;20088;-92
2022/07/02 01:37:15;;;;;;;2.35;1.35;;;;;;;19.68;48.63;94643.84;4986295;28;20030;-92
2022/07/02 01:39:42;;;;;;;1.98;1.30;;;;;;;19.61;48.40;94647.75;5003379;28;20118;-91
2022/07/02 01:42:19;;;;;;;3.75;1.30;;;;;;;19.67;48.19;94647.59;4986212;28;20069;-91
2022/07/02 01:44:45;;;;;;;1.42;1.10;;;;;;;19.73;48.00;94644.44;4969497;28;20030;-90
2022/07/02 01:47:12;;;;;;;2.08;1.20;;;;;;;19.71;48.41;94651.16;4969326;28;20104;-91
2022/07/02 01:49:38;;;;;;;3.40;1.10;;;;;;;19.73;48.06;94649.75;4986111;28;20080;-91
2022/07/02 01:52:16;;;;;;;2.70;1.08;;;;;;;19.68;48.41;94646.50;4986057;28;20351;-91
2022/07/02 01:54:42;;;;;;;2.97;1.40;;;;;;;19.69;48.05;94646.16;4969770;28;20033;-91
2022/07/02 01:57:07;;;;;;;2.22;1.02;;;;;;;19.70;48.33;94652.28;4986110;28;20022;-90
2022/07/02 01:59:34;;;;;;;9.98;1.23;;;;;;;19.54;49.05;94650.13;4970097;28;20038;-91
2022/07/02 02:02:01;;;;;;;4.05;0.90;;;;;;;19.55;48.81;94646.38;4969897;28;20034;-91
2022/07/02 02:04:27;;;;;;;3.08;1.02;;;;;;;19.35;49.39;94651.25;4969838;28;20030;-90
2022/07/02 02:06:53;;;;;;;3.40;1.10;;;;;;;19.43;49.04;94649.66;4986128;28;20030;-91
2022/07/02 02:09:19;;;;;;;3.28;1.00;;;;;;;19.32;49.51;94649.25;4985997;28;20436;-91
2022/07/02 02:11:45;;;;;;;6.57;1.23;;;;;;;19.31;49.68;94650.34;4986098;28;20073;-91
2022/07/02 02:14:10;;;;;;;3.40;1.45;;;;;;;19.16;50.62;94650.84;4969522;28;20435;-91
2022/07/02 02:16:36;;;;;;;4.00;1.42;;;;;;;19.16;50.85;94653.50;5003600;28;20030;-91
2022/07/02 02:19:02;;;;;;;3.10;1.27;;;;;;;19.33;49.76;94658.75;4969953;28;20355;-91
2022/07/02 02:21:28;;;;;;;2.30;1.10;;;;;;;19.31;50.05;94657.53;4985766;28;20450;-91
2022/07/02 02:23:54;;;;;;;4.95;1.40;;;;;;;19.40;50.12;94652.97;4985744;28;20514;-92
2022/07/02 02:26:20;;;;;;;4.20;1.27;;;;;;;19.44;49.92;94658.44;4985893;28;20026;-91
2022/07/02 02:28:46;;;;;;;1.20;0.90;;;;;;;19.58;49.55;94664.34;4986158;28;20149;-91
2022/07/02 02:31:11;;;;;;;2.58;1.05;;;;;;;19.68;49.15;94663.22;4986055;28;20061;-91
2022/07/02 02:33:37;;;;;;;2.58;1.00;;;;;;;19.72;49.54;94666.03;4985343;28;20034;-92
2022/07/02 02:36:02;;;;;;;2.00;0.98;;;;;;;19.90;48.58;94669.41;4969880;28;20030;-91
2022/07/02 02:38:28;;;;;;;4.40;1.42;;;;;;;19.90;48.27;94669.41;5000375;28;20030;-91
2022/07/02 02:40:53;;;;;;;4.50;1.35;;;;;;;19.88;48.88;94669.72;5000133;28;20031;-91
2022/07/02 02:43:19;;;;;;;6.15;1.10;;;;;;;19.83;48.97;94675.22;4966608;28;20034;-92
2022/07/02 02:45:45;;;;;;;2.67;1.10;;;;;;;19.90;48.65;94675.47;4982592;28;20054;-92
2022/07/02 02:48:10;;;;;;;3.85;1.30;;;;;;;19.83;49.07;94685.06;4966935;28;20041;-91
2022/07/02 02:50:35;;;;;;;2.83;1.17;;;;;;;19.77;48.93;94687.91;4982546;28;20034;-92
2022/07/02 02:53:01;;;;;;;3.05;1.17;;;;;;;19.75;49.47;94692.75;4982262;28;20038;-91
2022/07/02 02:55:27;;;;;;;2.63;1.23;;;;;;;19.72;49.66;94692.59;4966786;28;20033;-90
2022/07/02 02:57:52;;;;;;;2.55;1.10;;;;;;;19.79;49.55;94690.22;4999638;28;20041;-91
2022/07/02 03:00:18;;;;;;;2.95;1.35;;;;;;;19.72;50.05;94689.94;5000118;28;20053;-92
2022/07/02 03:02:43;;;;;;;3.40;1.33;;;;;;;19.61;50.31;94692.94;4966392;28;20086;-91
2022/07/02 03:05:09;;;;;;;4.18;1.25;;;;;;;19.66;50.07;94689.31;4982308;28;20093;-91
2022/07/02 03:07:34;;;;;;;2.58;1.30;;;;;;;19.64;50.45;94689.63;4966656;28;20030;-91
2022/07/02 03:10:00;;;;;;;3.03;1.30;;;;;;;19.55;50.35;94688.91;4982220;28;20089;-91
2022/07/02 03:12:25;;;;;;;3.83;1.10;;;;;;;19.60;50.69;94690.59;4966132;28;20359;-91
2022/07/02 03:14:51;;;;;;;5.13;1.48;;;;;;;19.68;50.73;94694.34;4981979;28;20031;-91
2022/07/02 03:17:17;;;;;;;3.97;1.20;;;;;;;19.64;50.94;94694.94;4982132;28;20392;-92
2022/07/02 03:19:43;;;;;;;3.10;1.30;;;;;;;19.62;51.17;94696.38;4981983;28;20317;-91
2022/07/02 03:22:16;;;;;;;5.07;1.30;;;;;;;19.61;51.50;94702.78;4981886;28;20355;-92
2022/07/02 03:24:41;;;;;;;2.93;1.20;;;;;;;19.29;53.14;94702.22;4977557;28;20022;-91
2022/07/02 03:27:07;;;;;;;3.97;1.00;;;;;;;19.24;55.09;94702.38;5016054;28;20265;-92
2022/07/02 03:29:33;;;;;;;3.13;1.17;;;;;;;18.96;54.43;94700.81;4989686;28;20080;-92
2022/07/02 03:31:58;;;;;;;6.15;1.35;;;;;;;19.33;52.89;94706.59;4977521;28;20088;-92
2022/07/02 03:34:23;;;;;;;3.63;1.20;;;;;;;19.41;52.56;94707.66;4997515;28;20072;-92
2022/07/02 03:36:49;;;;;;;1.80;0.90;;;;;;;19.52;52.17;94704.69;4965644;28;20053;-92
2022/07/02 03:39:14;;;;;;;3.00;1.20;;;;;;;19.61;52.04;94700.13;4981484;28;20037;-92
2022/07/02 03:41:43;;;;;;;4.05;1.30;;;;;;;19.59;52.27;94700.44;4981619;28;20058;-93
2022/07/02 03:44:08;;;;;;;2.47;1.35;;;;;;;19.50;52.77;94705.00;4965742;28;20506;-92
2022/07/02 03:46:33;;;;;;;6.43;1.40;;;;;;;19.60;52.76;94703.91;4981521;28;20104;-92
2022/07/02 03:48:59;;;;;;;3.83;1.20;;;;;;;19.52;53.46;94700.16;4998914;28;20026;-92
2022/07/02 03:51:27;;;;;;;3.83;1.02;;;;;;;19.53;53.87;94704.38;4981239;28;20470;-92
2022/07/02 03:53:52;;;;;;;3.47;1.02;;;;;;;19.44;54.31;94711.56;4984007;28;20029;-92
2022/07/02 03:56:18;;;;;;;4.88;1.40;;;;;;;19.36;54.92;94711.25;5000723;28;20461;-92
2022/07/02 03:58:43;;;;;;;4.07;1.27;;;;;;;19.15;55.51;94711.16;4984601;28;20044;-91
2022/07/02 04:01:09;;;;;;;3.95;1.33;;;;;;;19.28;54.64;94712.06;4984738;28;20113;-92
2022/07/02 04:03:35;;;;;;;5.30;1.45;;;;;;;19.02;56.52;94715.50;5000406;28;20113;-92
2022/07/02 04:06:01;;;;;;;4.53;1.10;;;;;;;19.21;55.58;94719.72;4984335;28;20026;-91
2022/07/02 04:08:26;;;;;;;3.88;1.00;;;;;;;19.10;56.13;94718.50;5000450;28;20470;-93
2022/07/02 04:10:52;;;;;;;3.05;1.27;;;;;;;19.10;56.53;94716.59;5000521;28;20030;-92
2022/07/02 04:13:17;;;;;;;2.00;1.17;;;;;;;18.85;60.45;94721.56;4984125;28;20034;-91
2022/07/02 04:15:43;;;;;;;6.15;1.10;;;;;;;18.57;63.91;94727.13;5000619;28;20025;-91
2022/07/02 04:18:08;;;;;;;5.50;1.30;;;;;;;18.55;60.98;94720.59;4984338;28;20056;-92
2022/07/02 04:20:34;;;;;;;3.00;1.20;;;;;;;18.50;62.20;94729.47;5000284;28;20030;-91
2022/07/02 04:22:59;;;;;;;3.10;1.38;;;;;;;18.31;66.03;94727.06;5000048;28;20097;-91
2022/07/02 04:25:25;;;;;;;3.50;1.33;;;;;;;18.26;69.23;94735.94;4984216;28;20053;-92
2022/07/02 04:27:50;;;;;;;4.22;1.50;;;;;;;18.57;63.30;94729.78;5000288;28;20056;-92
2022/07/02 04:30:16;;;;;;;2.33;1.30;;;;;;;18.98;61.26;94727.03;5000616;28;20489;-92
2022/07/02 04:32:41;;;;;;;6.15;1.55;;;;;;;19.23;59.34;94724.72;5000546;28;20083;-92
2022/07/02 04:35:07;;;;;;;3.38;1.65;;;;;;;19.39;59.59;94728.47;4984343;28;20424;-91
2022/07/02 04:37:35;;;;;;;8.57;1.48;;;;;;;19.44;60.24;94733.63;5000597;28;20026;-94
2022/07/02 04:40:10;;;;;;;4.72;1.30;;;;;;;19.55;59.05;94741.25;5000372;28;20030;-90
2022/07/02 04:42:38;;;;;;;3.83;1.33;;;;;;;19.49;61.63;94733.44;5000415;28;20025;-94
2022/07/02 04:45:04;;;;;;;3.95;1.15;;;;;;;19.21;65.97;94723.16;4984541;28;20032;-92
2022/07/02 04:47:30;;;;;;;7.60;1.20;;;;;;;19.38;63.75;94734.88;4999936;28;20036;-91
2022/07/02 04:49:55;;;;;;;2.60;1.73;;;;;;;19.66;60.48;94726.53;5000002;28;20029;-91
2022/07/02 04:52:21;;;;;;;5.05;1.50;;;;;;;19.88;59.76;94722.88;5000385;28;20040;-92
2022/07/02 04:54:47;;;;;;;4.93;1.38;;;;;;;19.91;60.00;94722.25;4983887;28;20033;-93
2022/07/02 04:57:12;;;;;;;2.95;1.35;;;;;;;19.82;61.79;94736.66;4999803;28;20029;-94
2022/07/02 04:59:44;;;;;;;2.03;1.10;;;;;;;19.74;65.26;94735.59;4985099;28;20026;-91
2022/07/02 05:02:15;;;;;;;4.10;1.40;;;;;;;19.72;65.17;94746.53;4983575;28;20466;-90
2022/07/02 05:04:44;;;;;;;4.47;1.40;;;;;;;19.78;67.07;94739.16;4985172;28;20087;-94
2022/07/02 05:07:10;;;;;;;3.45;1.40;;;;;;;19.76;64.92;94749.34;4984159;28;20026;-94
2022/07/02 05:09:36;;;;;;;2.28;1.17;;;;;;;19.88;62.52;94751.38;5002127;28;20501;-94
2022/07/02 05:12:02;;;;;;;3.53;1.33;;;;;;;19.81;65.42;94749.19;4983769;28;20025;-94
2022/07/02 05:14:27;;;;;;;4.47;1.17;;;;;;;19.73;64.48;94757.94;4985379;28;20037;-94
2022/07/02 05:16:53;;;;;;;5.03;1.40;;;;;;;19.98;68.76;94751.03;4984077;28;20347;-95
2022/07/02 05:19:18;;;;;;;2.40;1.30;;;;;;;19.94;87.34;94751.97;4984596;28;20033;-94
2022/07/02 05:21:44;;;;;;;2.97;1.52;;;;;;;20.07;80.10;94758.97;4985145;28;20026;-94
2022/07/02 05:24:10;;;;;;;3.15;1.10;;;;;;;20.28;83.75;94763.63;4984904;28;20328;-95
2022/07/02 05:26:35;;;;;;;3.00;1.25;;;;;;;20.37;84.55;94760.91;5000932;28;20026;-95
2022/07/02 05:29:02;;;;;;;5.53;1.08;;;;;;;20.26;84.62;94760.50;5001417;28;20091;-94
2022/07/02 05:31:27;;;;;;;1.90;1.20;;;;;;;20.22;97.89;94759.56;4985380;28;20036;-94
2022/07/02 05:33:52;;;;;;;9.35;1.60;;;;;;;20.11;100.00;94757.25;5017572;28;20409;-94
2022/07/02 05:36:18;;;;;;;3.28;1.40;;;;;;;20.05;85.14;94761.19;5000062;28;20025;-95
2022/07/02 05:38:43;;;;;;;4.97;1.60;;;;;;;20.43;97.29;94763.06;4985760;28;20061;-95
2022/07/02 05:41:12;;;;;;;2.08;1.10;;;;;;;20.48;80.97;94768.22;4988138;28;20032;-94
2022/07/02 05:43:37;;;;;;;4.00;1.70;;;;;;;20.72;73.73;94771.38;4987375;28;20073;-94
2022/07/02 05:46:03;;;;;;;3.67;1.10;;;;;;;21.02;89.33;94774.81;5001678;28;20069;-94
2022/07/02 05:48:28;;;;;;;2.35;1.20;;;;;;;21.08;78.80;94782.63;5001785;28;20435;-95
2022/07/02 05:54:21;;;;;;;1.83;1.10;;;;;;;21.37;67.77;94791.66;4992081;28;20145;-95
2022/07/02 05:56:47;;;;;;;2.83;1.38;;;;;;;21.27;67.03;94787.50;5001538;28;20061;-94
2022/07/02 05:59:28;;;;;;;6.15;1.45;;;;;;;21.41;67.93;94796.00;4999141;28;20049;-94
2022/07/02 06:01:53;;;;;;;4.25;1.30;;;;;;;21.28;64.25;94789.06;4999304;28;20025;-93
2022/07/02 06:04:23;;;;;;;2.58;0.90;;;;;;;21.56;60.79;94797.31;5016799;28;20446;-95
2022/07/02 06:09:40;;;;;;;3.95;1.25;;;;;;;21.48;83.32;94803.47;4980738;28;20045;-94
2022/07/02 06:12:19;;;;;;;5.68;1.70;;;;;;;21.13;74.19;94799.19;5016948;28;20026;-94
2022/07/02 06:14:44;;;;;;;4.97;1.30;;;;;;;21.46;77.64;94809.16;4986418;28;20026;-94
2022/07/02 06:17:10;;;;;;;8.00;1.25;;;;;;;21.84;78.50;94806.66;5005814;28;20036;-96
2022/07/02 06:19:38;;;;;;;3.03;1.30;;;;;;;21.86;78.54;94802.56;4985874;28;20029;-93
2022/07/02 06:22:04;;;;;;;2.92;1.10;;;;;;;21.99;77.05;94807.94;4985002;28;20359;-94
2022/07/02 06:24:30;;;;;;;2.60;1.40;;;;;;;22.09;79.31;94806.72;4999184;28;20103;-93
2022/07/02 06:28:11;;;;;;;6.93;1.30;;;;;;;22.13;77.49;94812.94;4999905;28;20058;-93
2022/07/02 06:31:30;;;;;;;;;;;;;;;;;;;;;
2022/07/02 06:33:56;;;;;;;4.13;1.30;;;;;;;22.45;75.51;94815.88;4949915;28;20046;-93
2022/07/02 06:36:26;;;;;;;3.03;1.10;;;;;;;22.64;74.50;94818.06;4947201;28;20436;-92
2022/07/02 06:38:52;;;;;;;5.13;1.35;;;;;;;22.65;71.58;94818.84;4992976;28;20034;-94
2022/07/02 06:55:03;;;;;;;3.80;1.48;;;;;;;22.88;73.12;94827.97;4959139;29;20075;-94
2022/07/02 06:57:41;;;;;;;;;;;;;;;;;;;;;
2022/07/02 07:00:08;;;;;;;1.40;1.13;;;;;;;23.34;65.76;94828.94;4998648;28;20339;-94
2022/07/02 07:02:43;;;;;;;6.90;1.40;;;;;;;23.10;64.12;94835.88;4999608;28;20045;-93
2022/07/02 07:05:11;;;;;;;4.68;1.23;;;;;;;23.38;65.50;94845.84;4998545;28;20080;-92
2022/07/02 07:07:36;;;;;;;3.80;1.35;;;;;;;23.55;66.05;94845.59;4999311;28;20332;-94
2022/07/02 07:10:03;;;;;;;2.35;1.35;;;;;;;23.63;64.27;94848.47;4966353;28;20030;-94
2022/07/02 07:12:31;;;;;;;2.95;1.20;;;;;;;23.75;67.98;94859.13;4982354;28;20026;-94
2022/07/02 07:15:00;;;;;;;1.98;1.27;;;;;;;23.79;65.86;94853.88;4966024;28;20089;-93
2022/07/02 07:17:25;;;;;;;4.10;1.20;;;;;;;23.84;66.01;94858.97;5003303;28;20026;-92
2022/07/02 07:19:51;;;;;;;3.85;1.52;;;;;;;24.10;67.93;94863.13;5001609;28;20125;-93
2022/07/02 07:22:17;;;;;;;5.43;1.30;;;;;;;24.12;67.15;94861.69;5001533;28;20053;-95
2022/07/02 07:24:42;;;;;;;8.77;1.35;;;;;;;23.97;84.64;94860.47;5019335;28;20446;-94
2022/07/02 07:27:08;;;;;;;4.10;1.40;;;;;;;23.98;69.24;94861.28;5002399;28;20030;-96
2022/07/02 07:30:20;;;;;;;4.15;1.42;;;;;;;24.26;71.88;94863.19;5023519;28;20100;-96
2022/07/02 07:32:46;;;;;;;2.92;1.45;;;;;;;24.46;69.96;94864.06;4982387;28;20034;-94
2022/07/02 07:42:14;;;;;;;5.75;1.40;;;;;;;24.88;70.31;94857.44;4940656;29;20035;-95
2022/07/02 07:44:43;;;;;;;4.00;1.58;;;;;;;25.11;74.80;94872.91;5001949;28;20037;-95
2022/07/02 07:47:08;;;;;;;3.40;1.50;;;;;;;25.32;71.17;94861.88;5005647;28;20105;-95
2022/07/02 07:56:21;;;;;;;5.18;1.35;;;;;;;25.54;69.89;94868.50;4942225;28;20090;-93
2022/07/02 07:59:22;;;;;;;5.05;1.67;;;;;;;25.55;71.49;94870.03;5023497;28;20518;-95
2022/07/02 08:01:50;;;;;;;6.18;1.58;;;;;;;25.82;68.59;94877.47;4979814;28;20057;-96
2022/07/02 08:14:31;;;;;;;4.35;1.30;;;;;;;26.03;67.09;94879.78;4946354;28;20050;-95
2022/07/02 08:24:16;;;;;;;2.60;1.50;;;;;;;26.39;68.76;94883.16;4923426;28;20533;-95
2022/07/02 08:26:42;;;;;;;6.88;1.75;;;;;;;26.45;67.55;94882.88;4928548;28;20035;-95
2022/07/02 08:29:09;;;;;;;2.90;1.42;;;;;;;26.37;65.11;94885.41;4963503;28;20035;-95
2022/07/02 08:31:34;;;;;;;9.85;1.90;;;;;;;26.41;67.18;94876.66;4969592;28;20324;-96
2022/07/02 08:34:00;;;;;;;5.88;1.58;;;;;;;26.75;66.23;94874.91;5003224;28;20117;-95
2022/07/02 08:36:26;;;;;;;5.80;1.85;;;;;;;26.78;63.91;94882.28;4986637;28;20033;-95
2022/07/02 08:38:52;;;;;;;6.20;1.52;;;;;;;26.66;65.24;94883.22;4987108;28;20040;-96
2022/07/02 08:41:17;;;;;;;3.00;1.33;;;;;;;26.74;66.49;94878.75;4985534;28;20415;-95
2022/07/02 08:43:44;;;;;;;6.68;1.77;;;;;;;26.71;63.67;94873.31;4986137;28;20049;-96
2022/07/02 08:46:10;;;;;;;3.47;1.42;;;;;;;26.84;63.60;94876.59;4985037;28;20091;-95
2022/07/02 08:48:37;;;;;;;5.72;1.83;;;;;;;26.81;62.36;94881.56;4986915;28;20037;-96
2022/07/02 08:51:03;;;;;;;4.32;1.90;;;;;;;25.98;65.95;94872.03;4984476;28;20080;-94
2022/07/02 08:53:28;;;;;;;5.07;2.10;;;;;;;26.39;65.88;94872.41;5000438;28;20030;-95
2022/07/02 08:55:55;;;;;;;7.47;2.17;;;;;;;26.44;67.71;94870.56;5000190;28;20352;-94
2022/07/02 08:58:21;;;;;;;3.22;1.52;;;;;;;26.83;71.19;94870.47;5000573;28;20029;-95
2022/07/02 09:00:48;;;;;;;9.73;2.53;;;;;;;26.96;78.84;94869.13;4985185;28;20061;-93
2022/07/02 09:03:14;;;;;;;9.50;2.47;;;;;;;26.90;69.28;94872.47;4985444;28;20029;-95
2022/07/02 09:05:40;;;;;;;9.93;2.60;;;;;;;27.06;74.02;94867.75;5002805;28;20029;-96
2022/07/02 09:08:06;;;;;;;11.48;2.72;;;;;;;27.30;75.14;94867.72;4986641;28;20026;-96
2022/07/02 09:10:32;;;;;;;16.25;2.80;;;;;;;27.17;71.60;94875.19;4984752;28;20345;-96
2022/07/02 09:12:58;;;;;;;10.30;3.53;;;;;;;27.32;76.26;94876.19;4984803;28;20049;-95
2022/07/02 09:15:25;;;;;;;9.85;2.63;;;;;;;27.50;86.13;94874.50;4985770;28;20033;-95
2022/07/02 09:17:51;;;;;;;8.55;2.75;;;;;;;27.58;72.76;94877.34;5002663;28;20088;-95
2022/07/02 09:20:17;;;;;;;8.23;2.38;;;;;;;27.87;71.23;94881.13;4986481;28;20030;-94
2022/07/02 09:22:48;;;;;;;10.73;2.53;;;;;;;27.79;68.51;94887.59;4986570;28;20033;-96
2022/07/02 09:25:16;;;;;;;6.95;2.50;;;;;;;27.77;68.03;94882.56;4986009;28;20025;-95
2022/07/02 09:27:44;;;;;;;7.07;2.20;;;;;;;27.57;66.88;94873.84;4987258;28;20445;-96
2022/07/02 09:30:11;;;;;;;15.82;2.90;;;;;;;27.40;64.65;94882.44;4984630;28;20128;-91
2022/07/02 09:32:40;;;;;;;16.92;2.60;;;;;;;27.28;64.60;94886.13;5018077;28;20506;-95
2022/07/02 09:35:07;;;;;;;9.02;2.30;;;;;;;27.21;61.79;94890.25;4982615;28;20442;-91
2022/07/02 09:37:32;;;;;;;7.10;2.33;;;;;;;27.16;62.10;94887.09;4998297;28;20026;-95
2022/07/02 09:40:02;;;;;;;5.93;1.95;;;;;;;27.29;57.78;94887.69;4980669;28;20053;-95
2022/07/02 09:42:33;;;;;;;5.75;2.35;;;;;;;27.61;60.50;94896.19;4966355;28;20161;-94
2022/07/02 09:45:04;;;;;;;5.20;1.95;;;;;;;27.66;58.42;94882.44;4998744;28;20080;-94
2022/07/02 09:47:31;;;;;;;8.57;2.20;;;;;;;27.30;55.15;94897.28;4999431;28;20466;-91
2022/07/02 09:49:57;;;;;;;11.40;2.67;;;;;;;27.51;54.49;94902.97;5002211;28;20030;-95
2022/07/02 09:52:23;;;;;;;7.28;2.10;;;;;;;27.41;58.39;94903.59;4969317;28;20034;-95
2022/07/02 09:54:48;;;;;;;8.45;2.05;;;;;;;27.67;57.13;94899.34;5003444;28;20108;-95
2022/07/02 09:57:14;;;;;;;17.95;2.25;;;;;;;27.60;54.29;94901.97;5001760;28;20030;-95
2022/07/02 09:59:40;;;;;;;13.20;1.90;;;;;;;27.41;53.34;94903.59;4968149;28;20033;-95
2022/07/02 10:05:31;;;;;;;6.00;1.98;;;;;;;27.86;56.39;94905.75;5001582;28;20081;-92
2022/07/02 10:07:58;;;;;;;7.45;2.17;;;;;;;27.76;59.21;94907.13;5000629;28;20074;-94
2022/07/02 10:10:39;;;;;;;9.05;2.25;;;;;;;27.64;58.61;94900.88;5001251;28;20038;-93
2022/07/02 10:13:08;;;;;;;8.00;1.95;;;;;;;27.97;57.88;94901.25;5000268;28;20351;-94
2022/07/02 10:15:38;;;;;;;7.00;1.85;;;;;;;28.15;58.10;94892.63;4967264;28;20038;-92
2022/07/02 10:18:05;;;;;;;6.78;2.55;;;;;;;28.00;56.20;94895.16;4983534;28;20030;-92
2022/07/02 10:20:32;;;;;;;4.72;1.70;;;;;;;27.80;57.46;94900.66;4967194;28;20041;-94
2022/07/02 10:23:00;;;;;;;9.70;1.75;;;;;;;28.12;58.44;94896.81;4966984;28;20026;-93
2022/07/02 10:25:25;;;;;;;7.00;2.00;;;;;;;28.30;57.89;94890.88;4983062;28;20076;-93
2022/07/02 10:27:51;;;;;;;7.85;2.05;;;;;;;27.98;57.46;94899.34;5000356;28;20034;-93
2022/07/02 10:30:20;;;;;;;6.95;2.00;;;;;;;28.35;56.38;94904.03;4982976;28;20030;-94
2022/07/02 10:33:23;;;;;;;12.85;1.92;;;;;;;28.52;56.06;94897.25;4985867;28;20038;-94
2022/07/02 10:36:52;;;;;;;;;;;;;;;;;;;;;
2022/07/02 10:40:04;;;;;;;7.15;2.22;;;;;;;28.45;53.85;94897.94;4939355;29;20060;-92
2022/07/02 10:42:42;;;;;;;5.28;1.98;;;;;;;28.77;55.85;94907.47;4980958;28;20136;-93
2022/07/02 10:45:49;;;;;;;16.13;2.10;;;;;;;28.58;54.05;94908.47;5002207;28;20029;-93
2022/07/02 10:48:15;;;;;;;10.13;2.25;;;;;;;28.46;52.63;94894.09;4944777;28;20043;-92
2022/07/02 10:54:11;;;;;;;11.35;2.40;;;;;;;28.32;52.29;94900.13;5019162;28;20044;-93
2022/07/02 10:56:59;;;;;;;5.53;1.90;;;;;;;28.78;52.97;94890.16;5019426;28;20030;-93
2022/07/02 10:59:43;;;;;;;9.52;2.22;;;;;;;28.48;50.88;94893.75;5002898;28;20041;-92
2022/07/02 11:02:11;;;;;;;8.43;2.15;;;;;;;28.78;54.13;94884.75;4986990;28;20431;-94
2022/07/02 11:04:38;;;;;;;6.03;2.10;;;;;;;28.83;51.56;94887.13;5019028;28;20029;-94
2022/07/02 11:07:08;;;;;;;7.13;2.20;;;;;;;29.04;49.63;94885.75;4986222;28;20240;-94
2022/07/02 11:10:29;;;;;;;7.57;2.10;;;;;;;29.31;50.14;94864.75;5002084;28;20028;-93
2022/07/02 11:13:07;;;;;;;8.90;2.08;;;;;;;28.92;49.62;94871.44;5018968;28;20045;-93
2022/07/02 11:15:36;;;;;;;5.65;1.90;;;;;;;29.44;52.09;94878.72;5001428;28;20331;-93
2022/07/02 11:18:06;;;;;;;14.60;2.40;;;;;;;28.84;50.37;94880.63;4985973;28;20026;-93
2022/07/02 11:20:47;;;;;;;6.43;2.30;;;;;;;28.87;51.89;94876.38;5001645;28;20083;-94
2022/07/02 11:23:13;;;;;;;9.38;2.05;;;;;;;29.34;52.10;94874.81;5001104;28;20458;-94
2022/07/02 11:25:38;;;;;;;5.30;2.13;;;;;;;29.14;48.64;94881.59;5001384;28;20108;-93
2022/07/02 11:28:06;;;;;;;8.60;2.25;;;;;;;29.26;48.61;94875.09;5001474;28;20037;-93
2022/07/02 11:30:41;;;;;;;8.70;2.03;;;;;;;29.53;49.20;94880.31;5018787;28;20500;-93
2022/07/02 11:33:14;;;;;;;4.35;1.80;;;;;;;29.49;50.78;94872.22;5001289;28;20052;-92
2022/07/02 11:36:01;;;;;;;7.18;1.88;;;;;;;29.83;49.87;94871.97;5001255;28;20501;-94
2022/07/02 11:38:37;;;;;;;10.40;2.15;;;;;;;29.76;49.12;94882.72;5019311;28;20092;-93
2022/07/02 11:41:25;;;;;;;11.73;2.30;;;;;;;29.98;50.55;94875.47;5001353;28;20029;-94
2022/07/02 11:44:11;;;;;;;7.88;2.00;;;;;;;30.07;50.55;94869.78;5000753;28;20045;-93
2022/07/02 11:46:46;;;;;;;10.25;2.20;;;;;;;30.25;50.63;94869.78;5018637;28;20056;-94
2022/07/02 11:49:43;;;;;;;10.90;2.88;;;;;;;29.77;49.16;94863.44;4985036;28;20026;-92
2022/07/02 11:52:08;;;;;;;6.28;1.92;;;;;;;30.06;48.98;94862.81;5000305;28;20084;-94
2022/07/02 11:54:40;;;;;;;13.80;2.10;;;;;;;29.93;46.31;94867.00;5000836;28;20439;-92
2022/07/02 11:57:08;;;;;;;6.32;1.75;;;;;;;30.04;47.32;94863.19;5001172;28;20029;-93
2022/07/02 11:59:50;;;;;;;7.88;2.53;;;;;;;29.81;47.75;94858.06;5000865;28;20080;-94
2022/07/02 12:02:36;;;;;;;6.18;2.10;;;;;;;29.84;49.82;94856.53;5001156;28;20340;-93
2022/07/02 12:05:19;;;;;;;7.20;2.17;;;;;;;29.91;49.04;94859.25;5000849;28;20056;-93
2022/07/02 12:07:45;;;;;;;7.20;2.30;;;;;;;30.22;48.76;94859.00;5000652;28;20026;-94
2022/07/02 12:10:11;;;;;;;6.88;1.90;;;;;;;30.33;47.29;94855.16;5000820;28;20033;-93
2022/07/02 12:12:36;;;;;;;12.30;2.22;;;;;;;30.15;47.30;94855.09;5000353;28;20038;-93
2022/07/02 12:15:05;;;;;;;8.07;2.65;;;;;;;30.27;47.04;94850.50;5000534;28;20083;-94
2022/07/02 12:17:31;;;;;;;7.97;2.20;;;;;;;30.11;48.94;94858.94;5001117;28;20046;-92
2022/07/02 12:19:57;;;;;;;9.27;2.50;;;;;;;29.97;47.28;94849.63;5000427;28;20037;-92
2022/07/02 12:22:24;;;;;;;9.75;2.60;;;;;;;30.32;46.57;94852.81;5017950;28;20037;-93
2022/07/02 12:24:51;;;;;;;9.68;2.55;;;;;;;30.61;44.77;94848.22;5016885;28;20036;-94
2022/07/02 12:27:17;;;;;;;5.15;2.17;;;;;;;30.64;45.33;94845.94;5000475;28;20032;-92
2022/07/02 12:29:58;;;;;;;10.95;2.00;;;;;;;30.29;48.18;94840.88;5017817;28;20030;-93
2022/07/02 12:32:23;;;;;;;9.38;2.40;;;;;;;30.39;47.05;94843.94;4986527;28;20026;-94
2022/07/02 12:34:50;;;;;;;5.60;2.25;;;;;;;30.58;49.16;94845.50;5017673;28;20025;-93
2022/07/02 12:37:37;;;;;;;12.07;2.25;;;;;;;30.44;46.79;94844.34;5017663;28;20033;-93
2022/07/02 12:40:34;;;;;;;10.98;2.60;;;;;;;30.65;48.63;94836.66;4999719;28;20032;-93
2022/07/02 12:47:02;;;;;;;;;;;;;;;;;;;;;
2022/07/02 12:52:54;;;;;;;10.95;2.47;;;;;;;30.95;50.85;94838.19;4938005;29;20042;-94
2022/07/02 12:58:51;;;;;;;10.50;2.53;;;;;;;31.41;48.20;94839.31;4941476;29;20039;-96
2022/07/02 13:05:02;;;;;;;;;;;;;;;;;;;;;